Time;durP1;ratioP1;P1;durP2;ratioP2;P2;SDS_P1;SDS_P2;PMS_P1;PMS_P2;Temp;Humidity;BMP_temperature;BMP_pressure;BME280_temperature;BME280_humidity;BME280_pressure;Samples;Min_cycle;Max_cycle;Signal;HPM_P1;HPM_P2
2022/01/04 00:01:28;;;;;;;37.95;5.53;;;7.60;99.90;;;;;;4848040;29;20204;-57
2022/01/04 00:03:54;;;;;;;25.88;5.60;;;7.60;99.90;;;;;;4865835;29;20588;-58
2022/01/04 00:06:20;;;;;;;29.90;5.18;;;7.60;99.90;;;;;;4880121;29;20410;-58
2022/01/04 00:08:46;;;;;;;30.27;5.20;;;7.60;99.90;;;;;;4881810;29;20508;-56
2022/01/04 00:11:30;;;;;;;25.90;5.50;;;7.60;99.90;;;;;;4880279;29;20416;-58
2022/01/04 00:13:56;;;;;;;28.88;5.03;;;7.50;99.90;;;;;;4865390;29;20567;-59
2022/01/04 00:16:22;;;;;;;29.50;5.00;;;7.50;99.90;;;;;;4819867;29;20063;-58
2022/01/04 00:18:48;;;;;;;25.95;4.85;;;7.50;99.90;;;;;;4861593;29;20416;-58
2022/01/04 00:21:14;;;;;;;29.40;5.40;;;7.50;99.90;;;;;;4862704;29;20115;-59
2022/01/04 00:23:40;;;;;;;32.15;5.30;;;7.50;99.90;;;;;;4879468;29;20092;-56
2022/01/04 00:26:05;;;;;;;23.10;4.75;;;7.40;99.90;;;;;;4875391;29;20053;-57
2022/01/04 00:28:31;;;;;;;40.17;5.95;;;7.40;99.90;;;;;;4852455;29;20591;-56
2022/01/04 00:30:57;;;;;;;22.98;4.88;;;7.40;99.90;;;;;;4872422;29;20052;-54
2022/01/04 00:33:23;;;;;;;33.67;5.47;;;7.50;99.90;;;;;;4878012;29;20048;-59
2022/01/04 00:35:49;;;;;;;32.58;5.15;;;7.40;99.90;;;;;;4879317;29;20915;-57
2022/01/04 00:38:16;;;;;;;30.67;6.03;;;7.40;99.90;;;;;;4877972;29;20057;-58
2022/01/04 00:40:41;;;;;;;31.10;5.47;;;7.40;99.90;;;;;;4878498;29;20485;-58
2022/01/04 00:43:08;;;;;;;31.30;5.13;;;7.40;99.90;;;;;;4878278;29;20052;-58
2022/01/04 00:45:36;;;;;;;32.08;5.80;;;7.40;99.90;;;;;;4877841;29;20131;-58
2022/01/04 00:50:32;;;;;;;33.95;5.38;;;7.40;99.90;;;;;;4878550;29;20124;-59
2022/01/04 00:52:59;;;;;;;25.98;5.88;;;7.50;99.90;;;;;;4877815;29;20461;-58
2022/01/04 00:55:26;;;;;;;33.42;6.10;;;7.40;99.90;;;;;;4877429;29;20456;-58
2022/01/04 00:57:51;;;;;;;26.92;5.80;;;7.40;99.90;;;;;;4878318;29;20416;-58
2022/01/04 01:00:18;;;;;;;26.55;6.00;;;7.50;99.90;;;;;;4879938;29;20090;-57
2022/01/04 01:02:45;;;;;;;29.38;6.45;;;7.40;99.90;;;;;;4877412;29;20159;-59
2022/01/04 01:05:11;;;;;;;40.38;7.15;;;7.40;99.90;;;;;;4874781;29;20532;-59
2022/01/04 01:07:38;;;;;;;36.92;7.18;;;7.50;99.90;;;;;;4877546;29;20053;-58
2022/01/04 01:13:08;;;;;;;29.85;6.78;;;7.50;99.90;;;;;;4825817;29;20084;-58
2022/01/04 01:15:35;;;;;;;29.92;7.25;;;7.50;99.90;;;;;;4848655;29;20048;-57
2022/01/04 01:18:01;;;;;;;28.20;8.25;;;7.50;99.90;;;;;;4876967;29;20171;-58
2022/01/04 01:20:27;;;;;;;36.08;8.13;;;7.50;99.90;;;;;;4875944;29;21536;-58
2022/01/04 01:22:53;;;;;;;37.75;7.72;;;7.50;99.90;;;;;;4872465;29;20503;-57
2022/01/04 01:25:20;;;;;;;27.33;7.40;;;7.50;99.90;;;;;;4872644;29;20056;-58
2022/01/04 01:27:46;;;;;;;35.03;7.72;;;7.50;99.90;;;;;;4877153;29;20515;-57
2022/01/04 01:30:13;;;;;;;34.35;7.25;;;7.50;99.90;;;;;;4878057;29;20115;-58
2022/01/04 01:32:39;;;;;;;35.22;8.65;;;7.50;99.90;;;;;;4877646;29;20052;-56
2022/01/04 01:35:05;;;;;;;33.10;7.18;;;7.50;99.90;;;;;;4859279;29;20052;-58
2022/01/04 01:37:31;;;;;;;30.17;7.00;;;7.50;99.90;;;;;;4878789;29;20531;-59
2022/01/04 01:39:57;;;;;;;28.55;7.63;;;7.50;99.90;;;;;;4875541;29;20111;-58
2022/01/04 01:42:23;;;;;;;39.60;8.43;;;7.50;99.90;;;;;;4861788;29;20064;-57
2022/01/04 01:44:49;;;;;;;36.97;8.55;;;7.60;99.90;;;;;;4861863;29;20084;-58
2022/01/04 01:47:15;;;;;;;27.52;7.13;;;7.60;99.90;;;;;;4861932;29;20047;-57
2022/01/04 01:49:41;;;;;;;32.80;7.70;;;7.60;99.90;;;;;;4873135;29;20404;-57
2022/01/04 01:52:07;;;;;;;27.67;7.15;;;7.60;99.90;;;;;;4863518;29;20053;-59
2022/01/04 01:54:39;;;;;;;27.27;6.32;;;7.50;99.90;;;;;;4877514;29;20785;-57
2022/01/04 01:57:05;;;;;;;33.20;7.00;;;7.60;99.90;;;;;;4878048;29;20134;-54
2022/01/04 01:59:31;;;;;;;38.53;7.43;;;7.50;99.90;;;;;;4860791;29;20058;-59
2022/01/04 02:01:57;;;;;;;44.22;7.38;;;7.50;99.90;;;;;;4845958;29;20052;-57
2022/01/04 02:04:22;;;;;;;31.73;7.30;;;7.50;99.90;;;;;;4878970;29;20396;-59
2022/01/04 02:06:49;;;;;;;45.08;7.28;;;7.50;99.90;;;;;;4857954;29;20866;-59
2022/01/04 02:09:15;;;;;;;41.40;7.47;;;7.50;99.90;;;;;;4847097;29;20048;-56
2022/01/04 02:11:42;;;;;;;37.63;7.35;;;7.50;99.90;;;;;;4874822;29;20061;-59
2022/01/04 02:14:08;;;;;;;29.58;7.47;;;7.50;99.90;;;;;;4877110;29;20059;-57
2022/01/04 02:16:33;;;;;;;34.35;7.40;;;7.40;99.90;;;;;;4855606;29;20103;-58
2022/01/04 02:19:04;;;;;;;38.80;6.65;;;7.40;99.90;;;;;;4876102;29;20540;-58
2022/01/04 02:21:32;;;;;;;31.98;6.18;;;7.40;99.90;;;;;;4877348;29;20057;-59
2022/01/04 02:23:58;;;;;;;28.02;6.43;;;7.50;99.90;;;;;;4876936;29;20068;-59
2022/01/04 02:26:24;;;;;;;31.05;6.57;;;7.40;99.90;;;;;;4876510;29;20037;-58
2022/01/04 02:28:50;;;;;;;32.22;7.43;;;7.50;99.90;;;;;;4860267;29;20055;-58
2022/01/04 02:31:16;;;;;;;29.33;6.50;;;7.50;99.90;;;;;;4859051;29;20070;-58
2022/01/04 02:33:42;;;;;;;37.70;7.72;;;7.50;99.90;;;;;;4876425;29;20048;-58
2022/01/04 02:36:08;;;;;;;38.00;7.22;;;7.40;99.90;;;;;;4878426;29;20056;-57
2022/01/04 02:38:34;;;;;;;40.63;6.97;;;7.50;99.90;;;;;;4861931;29;20163;-58
2022/01/04 02:41:00;;;;;;;34.35;7.55;;;7.40;99.90;;;;;;4859956;29;20270;-59
2022/01/04 02:43:26;;;;;;;33.42;7.60;;;7.40;99.90;;;;;;4862677;29;20457;-54
2022/01/04 02:45:52;;;;;;;37.58;7.40;;;7.40;99.90;;;;;;4877799;29;20091;-59
2022/01/04 02:48:18;;;;;;;36.85;7.13;;;7.40;99.90;;;;;;4875416;29;20052;-58
2022/01/04 02:50:44;;;;;;;40.60;8.32;;;7.40;99.90;;;;;;4875632;29;20225;-59
2022/01/04 02:53:09;;;;;;;38.63;7.55;;;7.40;99.90;;;;;;4876563;29;20052;-58
2022/01/04 02:55:35;;;;;;;41.80;8.05;;;7.50;99.90;;;;;;4876099;29;20052;-59
2022/01/04 02:58:01;;;;;;;35.55;6.78;;;7.50;99.90;;;;;;4854088;29;20053;-59
2022/01/04 03:00:28;;;;;;;36.42;7.40;;;7.50;99.90;;;;;;4876327;29;20083;-59
2022/01/04 03:02:55;;;;;;;32.38;6.82;;;7.50;99.90;;;;;;4875909;29;20323;-59
2022/01/04 03:05:21;;;;;;;48.38;8.52;;;7.50;99.90;;;;;;4875231;29;20073;-58
2022/01/04 03:07:46;;;;;;;32.25;8.25;;;7.50;99.90;;;;;;4876530;29;20527;-59
2022/01/04 03:10:12;;;;;;;39.80;7.50;;;7.50;99.90;;;;;;4874639;29;20167;-57
2022/01/04 03:12:44;;;;;;;40.85;7.30;;;7.50;99.90;;;;;;4877061;29;20397;-59
2022/01/04 03:15:12;;;;;;;43.45;7.35;;;7.60;99.90;;;;;;4861191;29;20052;-59
2022/01/04 03:17:37;;;;;;;38.10;7.65;;;7.60;99.90;;;;;;4859260;29;20053;-57
2022/01/04 03:20:04;;;;;;;35.90;7.07;;;7.60;99.90;;;;;;4878628;29;20059;-59
2022/01/04 03:22:30;;;;;;;38.83;7.95;;;7.60;99.90;;;;;;4881183;29;20048;-58
2022/01/04 03:24:56;;;;;;;33.53;7.32;;;7.60;99.90;;;;;;4843975;29;20059;-58
2022/01/04 03:27:22;;;;;;;33.83;7.25;;;7.60;99.90;;;;;;4880459;29;20085;-59
2022/01/04 03:29:47;;;;;;;33.53;7.47;;;7.60;99.90;;;;;;4879271;29;20112;-57
2022/01/04 03:32:13;;;;;;;29.05;7.05;;;7.70;99.90;;;;;;4866140;29;20420;-59
2022/01/04 03:34:39;;;;;;;37.50;7.70;;;7.70;99.90;;;;;;4879482;29;20040;-58
2022/01/04 03:37:05;;;;;;;29.38;6.50;;;7.70;99.90;;;;;;4879015;29;20052;-58
2022/01/04 03:39:31;;;;;;;35.20;7.97;;;7.70;99.90;;;;;;4874951;29;20056;-59
2022/01/04 03:41:57;;;;;;;35.65;8.00;;;7.60;99.90;;;;;;4879426;29;20056;-59
2022/01/04 03:44:23;;;;;;;30.27;7.40;;;7.70;99.90;;;;;;4881138;29;20075;-58
2022/01/04 03:46:51;;;;;;;27.70;7.60;;;7.70;99.90;;;;;;4866147;29;20041;-55
2022/01/04 03:49:17;;;;;;;31.90;7.55;;;7.70;99.90;;;;;;4880187;29;20076;-59
2022/01/04 03:51:44;;;;;;;33.67;7.60;;;7.70;99.90;;;;;;4881014;29;20119;-57
2022/01/04 03:54:10;;;;;;;31.20;6.57;;;7.70;99.90;;;;;;4863374;29;22153;-59
2022/01/04 03:56:36;;;;;;;31.42;7.25;;;7.70;99.90;;;;;;4878870;29;20088;-58
2022/01/04 03:59:02;;;;;;;35.95;7.40;;;7.70;99.90;;;;;;4862591;29;20056;-58
2022/01/04 04:01:28;;;;;;;35.67;7.38;;;7.60;99.90;;;;;;4877597;29;20059;-59
2022/01/04 04:03:54;;;;;;;30.52;6.95;;;7.60;99.90;;;;;;4878284;29;20044;-58
2022/01/04 04:06:20;;;;;;;34.70;7.07;;;7.60;99.90;;;;;;4877381;29;20056;-58
2022/01/04 04:08:45;;;;;;;34.10;6.88;;;7.70;99.90;;;;;;4880832;29;20661;-58
2022/01/04 04:11:11;;;;;;;28.52;6.20;;;7.60;99.90;;;;;;4859986;29;20084;-59
2022/01/04 04:13:37;;;;;;;31.58;7.38;;;7.60;99.90;;;;;;4879346;29;20059;-57
2022/01/04 04:16:03;;;;;;;32.67;7.03;;;7.60;99.90;;;;;;4863224;29;20057;-59
2022/01/04 04:18:29;;;;;;;47.75;7.78;;;7.60;99.90;;;;;;4878138;29;20532;-59
2022/01/04 04:20:55;;;;;;;31.35;6.53;;;7.60;99.90;;;;;;4878562;29;20057;-59
2022/01/04 04:23:21;;;;;;;32.08;7.05;;;7.60;99.90;;;;;;4878083;29;20043;-58
2022/01/04 04:25:47;;;;;;;40.55;7.32;;;7.60;99.90;;;;;;4861333;29;20045;-58
2022/01/04 04:28:12;;;;;;;30.80;7.13;;;7.60;99.90;;;;;;4878420;29;20109;-59
2022/01/04 04:30:38;;;;;;;40.10;7.95;;;7.60;99.90;;;;;;4876005;29;20075;-58
2022/01/04 04:33:04;;;;;;;40.17;7.32;;;7.60;99.90;;;;;;4881011;29;20044;-58
2022/01/04 04:35:31;;;;;;;34.92;7.15;;;7.70;99.90;;;;;;4878989;29;20056;-58
2022/01/04 04:38:01;;;;;;;38.13;7.63;;;7.60;99.90;;;;;;4879455;29;20517;-58
2022/01/04 04:40:27;;;;;;;34.13;7.53;;;7.60;99.90;;;;;;4877126;29;20049;-58
2022/01/04 04:42:54;;;;;;;39.58;7.70;;;7.60;99.90;;;;;;4877132;29;20567;-58
2022/01/04 04:45:20;;;;;;;32.13;7.28;;;7.60;99.90;;;;;;4879026;29;20077;-56
2022/01/04 04:47:46;;;;;;;29.63;7.30;;;7.60;99.90;;;;;;4879102;29;20511;-57
2022/01/04 04:50:12;;;;;;;36.25;8.45;;;7.60;99.90;;;;;;4859752;29;20052;-56
2022/01/04 04:52:37;;;;;;;43.42;8.20;;;7.50;99.90;;;;;;4847926;29;20123;-59
2022/01/04 04:55:05;;;;;;;37.58;7.43;;;7.60;99.90;;;;;;4861895;29;20535;-56
2022/01/04 04:57:30;;;;;;;33.47;7.82;;;7.60;99.90;;;;;;4863381;29;20054;-58
2022/01/04 04:59:56;;;;;;;39.40;8.07;;;7.60;99.90;;;;;;4878123;29;20052;-58
2022/01/04 05:02:22;;;;;;;44.15;7.97;;;7.70;99.90;;;;;;4878540;29;20188;-58
2022/01/04 05:04:48;;;;;;;34.75;7.82;;;7.60;99.90;;;;;;4861058;29;21723;-58
2022/01/04 05:07:14;;;;;;;40.40;7.95;;;7.60;99.90;;;;;;4878944;29;20049;-59
2022/01/04 05:09:40;;;;;;;35.33;7.95;;;7.60;99.90;;;;;;4876909;29;20083;-58
2022/01/04 05:12:06;;;;;;;49.28;8.38;;;7.60;99.90;;;;;;4878810;29;20561;-57
2022/01/04 05:14:33;;;;;;;31.77;8.10;;;7.60;99.90;;;;;;4861305;29;20143;-58
2022/01/04 05:16:58;;;;;;;31.08;7.95;;;7.70;99.90;;;;;;4863932;29;20049;-56
2022/01/04 05:19:24;;;;;;;34.35;8.00;;;7.60;99.90;;;;;;4876079;29;20059;-58
2022/01/04 05:21:50;;;;;;;35.55;7.60;;;7.60;99.90;;;;;;4861974;29;20048;-57
2022/01/04 05:24:16;;;;;;;45.67;8.77;;;7.60;99.90;;;;;;4876390;29;20096;-55
2022/01/04 05:26:41;;;;;;;32.55;8.35;;;7.60;99.90;;;;;;4877392;29;20049;-56
2022/01/04 05:29:07;;;;;;;31.20;8.48;;;7.60;99.90;;;;;;4877101;29;20048;-57
2022/01/04 05:31:33;;;;;;;31.60;8.57;;;7.60;99.90;;;;;;4878163;29;20108;-59
2022/01/04 05:33:59;;;;;;;38.00;8.75;;;7.60;99.90;;;;;;4876999;29;21134;-57
2022/01/04 05:36:25;;;;;;;40.92;9.10;;;7.70;99.90;;;;;;4846834;29;20098;-58
2022/01/04 05:38:51;;;;;;;42.20;8.60;;;7.60;99.90;;;;;;4860675;29;20194;-56
2022/01/04 05:41:16;;;;;;;32.47;8.38;;;7.60;99.90;;;;;;4876331;29;20063;-58
2022/01/04 05:43:42;;;;;;;36.08;8.45;;;7.50;99.90;;;;;;4874878;29;20650;-58
2022/01/04 05:46:08;;;;;;;35.53;8.32;;;7.60;99.90;;;;;;4878803;29;20484;-59
2022/01/04 05:48:34;;;;;;;30.85;7.70;;;7.60;99.90;;;;;;4862463;29;20048;-59
2022/01/04 05:51:00;;;;;;;29.65;8.45;;;7.50;99.90;;;;;;4843638;29;20056;-59
2022/01/04 05:53:25;;;;;;;29.15;7.50;;;7.50;99.90;;;;;;4877455;29;20044;-59
2022/01/04 05:55:51;;;;;;;37.58;8.73;;;7.60;99.90;;;;;;4845378;29;20529;-59
2022/01/04 05:58:17;;;;;;;38.90;8.73;;;7.50;99.90;;;;;;4860853;29;20048;-59
2022/01/04 06:00:43;;;;;;;32.67;9.05;;;7.50;99.90;;;;;;4876461;29;20183;-59
2022/01/04 06:03:09;;;;;;;47.40;10.20;;;7.50;99.90;;;;;;4877390;29;20044;-57
2022/01/04 06:05:35;;;;;;;36.67;10.32;;;7.50;99.90;;;;;;4863473;29;20052;-57
2022/01/04 06:08:00;;;;;;;47.47;11.00;;;7.40;99.90;;;;;;4860969;29;20048;-58
2022/01/04 06:10:26;;;;;;;38.75;10.35;;;7.50;99.90;;;;;;4873169;29;20143;-58
2022/01/04 06:15:18;;;;;;;45.67;10.40;;;7.50;99.90;;;;;;4861360;29;20104;-59
2022/01/04 06:17:50;;;;;;;41.75;9.50;;;7.50;99.90;;;;;;4876217;29;20064;-59
2022/01/04 06:20:23;;;;;;;43.97;9.85;;;7.50;99.90;;;;;;4874619;29;20059;-58
2022/01/04 06:22:49;;;;;;;;;;;7.50;99.90;;;;;;4883552;29;20087;-59
2022/01/04 06:25:19;;;;;;;37.60;9.75;;;7.50;99.90;;;;;;4854453;29;19945;-59
2022/01/04 06:27:46;;;;;;;35.55;9.85;;;7.50;99.90;;;;;;4869889;29;20044;-58
2022/01/04 06:30:16;;;;;;;37.50;10.02;;;7.50;99.90;;;;;;4865648;29;20465;-58
2022/01/04 06:32:43;;;;;;;37.17;9.60;;;7.50;99.90;;;;;;4882571;29;20040;-58
2022/01/04 06:35:10;;;;;;;44.75;10.68;;;7.50;99.90;;;;;;4884246;29;20492;-57
2022/01/04 06:37:36;;;;;;;40.90;9.30;;;7.50;99.90;;;;;;4883783;29;20100;-59
2022/01/04 06:40:02;;;;;;;43.10;9.77;;;7.60;99.90;;;;;;4884776;29;20469;-58
2022/01/04 06:42:28;;;;;;;34.75;9.45;;;7.60;99.90;;;;;;4886660;29;20044;-59
2022/01/04 06:44:54;;;;;;;35.13;8.40;;;7.60;99.90;;;;;;4886568;29;20055;-59
2022/01/04 06:47:20;;;;;;;43.22;8.43;;;7.60;99.90;;;;;;4867198;29;20068;-58
2022/01/04 06:49:45;;;;;;;38.25;7.80;;;7.60;99.90;;;;;;4880937;29;20049;-59
2022/01/04 06:52:11;;;;;;;29.27;7.07;;;7.60;99.90;;;;;;4884365;29;20397;-57
2022/01/04 06:54:37;;;;;;;32.42;7.95;;;7.60;99.90;;;;;;4869076;29;20124;-59
2022/01/04 06:57:03;;;;;;;30.05;7.72;;;7.50;99.90;;;;;;4885116;29;20411;-57
2022/01/04 06:59:29;;;;;;;29.48;7.20;;;7.60;99.90;;;;;;4867354;29;20056;-58
2022/01/04 07:01:55;;;;;;;32.05;6.70;;;7.60;99.90;;;;;;4866836;29;20044;-58
2022/01/04 07:04:21;;;;;;;26.77;6.65;;;7.60;99.90;;;;;;4884346;29;20040;-58
2022/01/04 07:06:47;;;;;;;25.98;7.15;;;7.60;99.90;;;;;;4881109;29;20056;-57
2022/01/04 07:09:13;;;;;;;37.13;6.03;;;7.60;99.90;;;;;;4885099;29;20149;-58
2022/01/04 07:11:39;;;;;;;24.77;5.78;;;7.50;99.90;;;;;;4886761;29;20048;-57
2022/01/04 07:14:05;;;;;;;37.03;6.85;;;7.50;99.90;;;;;;4886303;29;20155;-57
2022/01/04 07:16:31;;;;;;;27.77;6.45;;;7.60;99.90;;;;;;4870088;29;20080;-58
2022/01/04 07:18:57;;;;;;;23.75;6.45;;;7.50;99.90;;;;;;4852567;29;20087;-58
2022/01/04 07:21:23;;;;;;;20.20;5.15;;;7.50;99.90;;;;;;4869383;29;20135;-58
2022/01/04 07:23:50;;;;;;;27.42;5.43;;;7.50;99.90;;;;;;4884639;29;20053;-59
2022/01/04 07:26:17;;;;;;;23.33;5.32;;;7.50;99.90;;;;;;4864787;29;20050;-58
2022/01/04 07:28:46;;;;;;;31.25;5.85;;;7.60;99.90;;;;;;4884362;29;20726;-59
2022/01/04 07:31:13;;;;;;;28.80;5.60;;;7.60;99.90;;;;;;4883307;29;20309;-59
2022/01/04 07:33:39;;;;;;;28.25;6.20;;;7.60;99.90;;;;;;4881063;29;20067;-59
2022/01/04 07:36:06;;;;;;;29.65;6.63;;;7.60;99.90;;;;;;4866178;29;20139;-58
2022/01/04 07:38:33;;;;;;;23.70;6.15;;;7.50;99.90;;;;;;4884499;29;20373;-56
2022/01/04 07:40:59;;;;;;;28.73;5.93;;;7.50;99.90;;;;;;4882080;29;20058;-58
2022/01/04 07:43:25;;;;;;;23.05;6.25;;;7.50;99.90;;;;;;4879813;29;20045;-59
2022/01/04 07:45:52;;;;;;;23.98;6.25;;;7.50;99.90;;;;;;4881399;29;20041;-59
2022/01/04 07:48:19;;;;;;;22.88;5.28;;;7.50;99.90;;;;;;4870838;29;20064;-59
2022/01/04 07:50:44;;;;;;;20.02;5.57;;;7.50;99.90;;;;;;4879959;29;20132;-58
2022/01/04 07:53:10;;;;;;;20.98;5.50;;;7.60;99.90;;;;;;4869338;29;20048;-59
2022/01/04 07:55:36;;;;;;;29.42;5.78;;;7.40;99.90;;;;;;4886676;29;20045;-57
2022/01/04 07:58:02;;;;;;;24.30;5.47;;;7.50;99.90;;;;;;4882905;29;20044;-57
2022/01/04 08:00:28;;;;;;;23.38;6.40;;;7.50;99.90;;;;;;4862109;29;20100;-58
2022/01/04 08:02:54;;;;;;;27.38;5.65;;;7.50;99.90;;;;;;4865194;29;20068;-59
2022/01/04 08:05:21;;;;;;;24.00;5.68;;;7.50;99.90;;;;;;4866484;29;20083;-59
2022/01/04 08:07:47;;;;;;;25.77;5.95;;;7.50;99.90;;;;;;4885112;29;21037;-59
2022/01/04 08:10:13;;;;;;;30.20;6.25;;;7.50;99.90;;;;;;4889530;29;20045;-58
2022/01/04 08:12:40;;;;;;;29.77;5.93;;;7.40;99.90;;;;;;4842292;29;20444;-58
2022/01/04 08:15:08;;;;;;;24.48;5.82;;;7.40;99.90;;;;;;4881173;29;20538;-58
2022/01/04 08:17:36;;;;;;;27.45;6.65;;;7.40;99.90;;;;;;4871362;29;20054;-57
2022/01/04 08:20:03;;;;;;;22.55;5.38;;;7.40;99.90;;;;;;4885839;29;20483;-59
2022/01/04 08:22:32;;;;;;;22.98;6.03;;;7.40;99.90;;;;;;4888962;29;20129;-59
2022/01/04 08:25:03;;;;;;;25.48;6.05;;;7.40;99.90;;;;;;4872225;29;20040;-59
2022/01/04 08:27:29;;;;;;;24.17;5.68;;;7.40;99.90;;;;;;4870533;29;20056;-59
2022/01/04 08:29:55;;;;;;;28.02;5.72;;;7.40;99.90;;;;;;4885701;29;20116;-59
2022/01/04 08:32:22;;;;;;;25.40;6.00;;;7.40;99.90;;;;;;4877869;29;20033;-59
2022/01/04 08:34:48;;;;;;;21.15;5.85;;;7.40;99.90;;;;;;4884260;29;20124;-58
2022/01/04 08:37:14;;;;;;;22.85;5.00;;;7.40;99.90;;;;;;4889711;29;20041;-58
2022/01/04 08:39:40;;;;;;;25.90;5.65;;;7.40;99.90;;;;;;4887023;29;20044;-58
2022/01/04 08:42:06;;;;;;;26.45;5.82;;;7.50;99.90;;;;;;4870556;29;20051;-57
2022/01/04 08:44:39;;;;;;;31.65;5.60;;;7.40;99.90;;;;;;4871081;29;20445;-58
2022/01/04 08:47:09;;;;;;;12.85;2.85;;;7.40;99.90;;;;;;4885913;29;20163;-58
2022/01/04 08:49:35;;;;;;;12.07;2.85;;;7.40;99.90;;;;;;4879933;29;20048;-58
2022/01/04 08:52:03;;;;;;;10.88;2.22;;;7.40;99.90;;;;;;4885265;29;20059;-58
2022/01/04 08:54:29;;;;;;;7.93;1.63;;;7.30;99.90;;;;;;4881995;29;20055;-59
2022/01/04 08:56:54;;;;;;;7.63;1.42;;;7.20;99.90;;;;;;4886095;29;20052;-58
2022/01/04 08:59:21;;;;;;;10.55;1.50;;;7.10;99.90;;;;;;4884612;29;22626;-58
2022/01/04 09:01:47;;;;;;;10.05;1.50;;;7.10;99.90;;;;;;4887408;29;20055;-59
2022/01/04 09:04:13;;;;;;;6.07;1.20;;;7.00;99.90;;;;;;4871285;29;20053;-59
2022/01/04 09:06:39;;;;;;;8.25;1.20;;;7.00;99.90;;;;;;4864825;29;20049;-59
2022/01/04 09:09:06;;;;;;;7.13;1.10;;;6.90;99.90;;;;;;4881761;29;20460;-59
2022/01/04 09:11:32;;;;;;;5.20;1.50;;;6.90;99.90;;;;;;4870896;29;20131;-57
2022/01/04 09:14:54;;;;;;;4.15;1.38;;;6.90;99.90;;;;;;4882019;29;20108;-57
2022/01/04 09:19:28;;;;;;;3.50;1.10;;;6.80;99.90;;;;;;4884386;29;20056;-57
2022/01/04 09:21:54;;;;;;;14.00;1.88;;;6.80;99.90;;;;;;4884832;29;20052;-58
2022/01/04 09:24:21;;;;;;;10.65;1.48;;;6.70;99.90;;;;;;4877893;29;20587;-57
2022/01/04 09:26:47;;;;;;;10.50;1.42;;;6.70;99.90;;;;;;4877406;29;20135;-56
2022/01/04 09:29:17;;;;;;;9.52;1.42;;;6.70;99.90;;;;;;4866655;29;20061;-56
2022/01/04 09:31:43;;;;;;;9.45;1.27;;;6.70;99.90;;;;;;4882918;29;20161;-55
2022/01/04 09:34:09;;;;;;;6.38;0.88;;;6.70;99.90;;;;;;4884317;29;20749;-56
2022/01/04 09:36:38;;;;;;;6.65;1.67;;;6.70;99.90;;;;;;4883014;29;20382;-54
2022/01/04 09:39:08;;;;;;;6.68;1.10;;;6.60;99.90;;;;;;4883632;29;20044;-56
2022/01/04 09:41:34;;;;;;;6.05;1.08;;;6.60;99.90;;;;;;4882563;29;20049;-55
2022/01/04 09:44:02;;;;;;;12.43;1.35;;;6.60;99.90;;;;;;4874249;29;20048;-56
2022/01/04 09:46:29;;;;;;;3.83;0.80;;;6.60;99.90;;;;;;4883123;29;20080;-55
2022/01/04 09:48:56;;;;;;;11.10;1.30;;;6.60;99.90;;;;;;4845364;29;20625;-55
2022/01/04 09:51:22;;;;;;;8.20;1.33;;;6.50;99.90;;;;;;4884922;29;20060;-55
2022/01/04 09:53:49;;;;;;;11.30;1.30;;;6.50;99.90;;;;;;4886831;29;20053;-55
2022/01/04 09:56:15;;;;;;;4.28;1.30;;;6.50;99.90;;;;;;4886312;29;20084;-56
2022/01/04 09:58:41;;;;;;;6.00;1.38;;;6.50;99.90;;;;;;4885364;29;20128;-56
2022/01/04 10:01:16;;;;;;;3.65;1.10;;;6.40;99.90;;;;;;4870114;29;20053;-55
2022/01/04 10:03:42;;;;;;;2.17;1.00;;;6.30;99.90;;;;;;4884980;29;20071;-55
2022/01/04 10:06:16;;;;;;;6.78;0.90;;;6.30;99.90;;;;;;4887385;29;20048;-53
2022/01/04 10:09:11;;;;;;;2.28;0.85;;;6.20;99.90;;;;;;4871476;29;20047;-53
2022/01/04 10:11:42;;;;;;;5.82;0.93;;;6.10;99.90;;;;;;4869632;29;20052;-56
2022/01/04 10:14:33;;;;;;;9.00;1.30;;;6.10;99.90;;;;;;4849453;29;20544;-56
2022/01/04 10:17:35;;;;;;;3.30;1.30;;;6.00;99.90;;;;;;4886808;29;20575;-55
2022/01/04 10:20:02;;;;;;;4.88;0.90;;;5.90;99.90;;;;;;4879797;29;20183;-56
2022/01/04 10:22:34;;;;;;;5.63;1.35;;;5.90;99.90;;;;;;4886603;29;20562;-53
2022/01/04 10:25:00;;;;;;;;;;;5.80;99.90;;;;;;4868695;29;20051;-56
2022/01/04 10:27:30;;;;;;;14.95;4.65;;;5.70;99.90;;;;;;4872380;29;19919;-56
2022/01/04 10:30:20;;;;;;;7.95;2.22;;;5.70;99.90;;;;;;4868641;29;20112;-54
2022/01/04 10:32:46;;;;;;;8.18;1.52;;;5.70;99.90;;;;;;4886225;29;20061;-55
2022/01/04 10:35:27;;;;;;;11.75;1.67;;;5.70;99.90;;;;;;4886839;29;20546;-57
2022/01/04 10:37:54;;;;;;;4.88;1.40;;;5.80;99.90;;;;;;4887572;29;20048;-57
2022/01/04 10:40:20;;;;;;;2.65;0.85;;;5.80;99.90;;;;;;4885575;29;20552;-56
2022/01/04 10:42:46;;;;;;;6.53;0.90;;;5.80;99.90;;;;;;4882729;29;20044;-56
2022/01/04 10:45:31;;;;;;;2.95;1.00;;;5.90;99.90;;;;;;4888936;29;20045;-57
2022/01/04 10:48:20;;;;;;;2.83;0.90;;;5.90;99.90;;;;;;4887354;29;20040;-54
2022/01/04 10:51:05;;;;;;;3.85;1.20;;;5.90;99.90;;;;;;4887953;29;20056;-57
2022/01/04 10:53:40;;;;;;;1.58;0.80;;;5.80;99.90;;;;;;4888531;29;20048;-55
2022/01/04 10:56:12;;;;;;;3.55;0.90;;;5.80;99.90;;;;;;4885202;29;20048;-56
2022/01/04 10:58:46;;;;;;;1.60;0.60;;;5.70;99.90;;;;;;4886979;29;20075;-56
2022/01/04 11:01:15;;;;;;;1.55;0.85;;;5.70;99.90;;;;;;4888467;29;20045;-57
2022/01/04 11:03:53;;;;;;;1.95;0.85;;;5.80;99.90;;;;;;4887784;29;20491;-55
2022/01/04 11:06:38;;;;;;;3.25;0.90;;;5.70;99.90;;;;;;4887461;29;20044;-56
2022/01/04 11:09:08;;;;;;;6.57;1.00;;;5.70;99.90;;;;;;4884928;29;20539;-56
2022/01/04 11:11:34;;;;;;;5.22;1.00;;;5.70;99.90;;;;;;4885473;29;20500;-55
2022/01/04 11:14:00;;;;;;;9.85;1.45;;;5.70;99.90;;;;;;4868877;29;20072;-56
2022/01/04 11:16:28;;;;;;;10.20;1.30;;;5.70;99.90;;;;;;4887469;29;20116;-52
2022/01/04 11:18:56;;;;;;;7.40;1.65;;;5.60;99.90;;;;;;4870205;29;20136;-56
2022/01/04 11:21:31;;;;;;;3.80;1.48;;;5.60;99.90;;;;;;4888043;29;20053;-56
2022/01/04 11:24:01;;;;;;;6.28;1.20;;;5.60;99.90;;;;;;4887950;29;20587;-57
2022/01/04 11:26:27;;;;;;;7.40;1.30;;;5.60;99.90;;;;;;4885598;29;20050;-56
2022/01/04 11:28:54;;;;;;;8.18;1.35;;;5.70;99.90;;;;;;4882273;29;20548;-57
2022/01/04 11:31:25;;;;;;;8.25;1.33;;;5.60;99.90;;;;;;4884661;29;20056;-56
2022/01/04 11:34:13;;;;;;;5.55;0.93;;;5.70;99.90;;;;;;4883985;29;20409;-56
2022/01/04 11:36:46;;;;;;;4.57;0.93;;;5.70;99.90;;;;;;4882047;29;20151;-55
2022/01/04 11:39:38;;;;;;;4.38;1.02;;;5.70;99.90;;;;;;4882267;29;20112;-52
2022/01/04 11:42:31;;;;;;;5.68;1.17;;;5.60;99.90;;;;;;4869927;29;20472;-56
2022/01/04 11:44:58;;;;;;;4.57;1.05;;;5.60;99.90;;;;;;4870793;29;20298;-57
2022/01/04 11:47:28;;;;;;;5.38;1.10;;;5.60;99.90;;;;;;4887768;29;20819;-56
2022/01/04 11:50:16;;;;;;;5.85;1.20;;;5.70;99.90;;;;;;4887809;29;20071;-57
2022/01/04 11:52:51;;;;;;;3.83;1.00;;;5.70;99.90;;;;;;4889650;29;20053;-57
2022/01/04 11:55:26;;;;;;;4.03;1.00;;;5.70;99.90;;;;;;4887158;29;20040;-56
2022/01/04 11:57:55;;;;;;;8.05;1.30;;;5.80;99.90;;;;;;4886477;29;20099;-54
2022/01/04 12:00:30;;;;;;;6.50;1.10;;;5.80;99.90;;;;;;4877637;29;20057;-57
2022/01/04 12:03:05;;;;;;;8.20;1.13;;;5.80;99.90;;;;;;4889145;29;20050;-58
2022/01/04 12:05:31;;;;;;;7.97;1.55;;;5.80;99.90;;;;;;4887520;29;20044;-56
2022/01/04 12:08:13;;;;;;;8.55;1.30;;;5.80;99.90;;;;;;4887055;29;20045;-57
2022/01/04 12:10:40;;;;;;;8.70;1.38;;;5.90;99.90;;;;;;4890763;29;20103;-57
2022/01/04 12:13:14;;;;;;;5.30;1.13;;;5.90;99.90;;;;;;4886881;29;20147;-56
2022/01/04 12:15:44;;;;;;;6.55;1.02;;;5.90;99.90;;;;;;4886291;29;20068;-55
2022/01/04 12:18:36;;;;;;;6.68;1.63;;;5.90;99.90;;;;;;4871384;29;20507;-57
2022/01/04 12:21:15;;;;;;;8.32;1.45;;;6.00;99.90;;;;;;4871147;29;20499;-58
2022/01/04 12:23:48;;;;;;;13.77;1.77;;;5.90;99.90;;;;;;4887493;29;20044;-58
2022/01/04 12:26:14;;;;;;;9.40;1.50;;;6.00;99.90;;;;;;4877778;29;20414;-58
2022/01/04 12:28:46;;;;;;;7.45;1.38;;;5.90;99.90;;;;;;4886017;29;20127;-56
2022/01/04 12:31:18;;;;;;;9.70;1.30;;;5.90;99.90;;;;;;4867476;29;20459;-58
2022/01/04 12:33:48;;;;;;;6.50;1.43;;;5.80;99.90;;;;;;4865198;29;20232;-58
2022/01/04 12:36:34;;;;;;;3.60;1.30;;;5.90;99.90;;;;;;4883666;29;20052;-58
2022/01/04 12:39:03;;;;;;;10.85;2.00;;;5.80;99.90;;;;;;4882137;29;20056;-58
2022/01/04 12:41:32;;;;;;;11.32;1.20;;;5.80;99.90;;;;;;4881528;29;20104;-57
2022/01/04 12:43:59;;;;;;;7.28;1.35;;;5.80;99.90;;;;;;4867491;29;20052;-59
2022/01/04 12:46:30;;;;;;;5.07;1.38;;;5.80;99.90;;;;;;4865051;29;20049;-60
2022/01/04 12:49:01;;;;;;;8.15;1.80;;;5.70;99.90;;;;;;4866274;29;20128;-59
2022/01/04 12:51:47;;;;;;;7.60;1.45;;;5.80;99.90;;;;;;4882245;29;20092;-56
2022/01/04 12:54:15;;;;;;;5.45;1.38;;;5.80;99.90;;;;;;4868844;29;20056;-57
2022/01/04 12:56:45;;;;;;;8.25;1.52;;;5.80;99.90;;;;;;4867494;29;20044;-57
2022/01/04 12:59:37;;;;;;;10.75;1.80;;;5.80;99.90;;;;;;4868288;29;20052;-57
2022/01/04 13:02:11;;;;;;;7.05;1.45;;;5.90;99.90;;;;;;4868726;29;20231;-57
2022/01/04 13:04:38;;;;;;;8.20;1.60;;;5.90;99.90;;;;;;4868310;29;20049;-57
2022/01/04 13:07:11;;;;;;;8.63;1.48;;;5.90;99.90;;;;;;4887117;29;20153;-57